Pleasant Home, Alabama
Current Conditions -  °F | °C
As of 1:56 PM on Wednesday 17 Dec 2014 (Local Time) from K79J Reporting Station
Clear Clear  
Wind Chill: 64°   Ceiling: Unl
Heat Index: 64°   Visibility: 10mi
Dew Point: 40°   Wind: 9mph
Humidity: 41%   Direction: 300°WNW
Pressure: 30.16"   Gusts: NA
Location:  31.1836°N, 86.5372°W
Report Text: K79J 171956Z AUTO 30008KT 10SM CLR 18/04 A3016 RMK AO2 SLP212 T01780044
Loading
Personal Weather Stations






























Interactive Weather Map New forecast layout! Learn more

10-Day Weather Forecast

Advertisements
Track Severe Weather on mobile